
Distance (Route):
Temperature : -20.7°C
Humidity : 28.9%
Pressure : 0hPa| Receiver | Frames | First received | Last received |
|---|---|---|---|
| LZ4TU-5 | 117 | 2026-09-01 17:40:14 | 2026-09-01 18:56:59 |
| Receiver | Date | Latitude | Longitude | Direction | Speed | Altitude | Climb | Temperature | Humidity | Pressure | Voltage | Killtimer | Uptime | BKT | XDATA |
|---|---|---|---|---|---|---|---|---|---|---|---|---|---|---|---|
| LZ4TU-5 | 2026-09-01 18:56:59 | 43.29031 | 20.82892 | 96° | 66km/h | 7604m | -16.8m/s | -20.7°C | 28.9% | 0hPa | 0V | 00:00:00 | 00:00:00 | 00:00:00 | |
| LZ4TU-5 | 2026-09-01 18:56:55 | 43.29037 | 20.82803 | 97° | 69km/h | 7662m | -15.9m/s | -21.1°C | 25.7% | 0hPa | 0V | 00:00:00 | 00:00:00 | 00:00:00 | |
| LZ4TU-5 | 2026-09-01 18:55:45 | 43.29090 | 20.81066 | 98° | 80km/h | 8867m | -18.0m/s | -30.2°C | 11.3% | 0hPa | 0V | 00:00:00 | 00:00:00 | 00:00:00 | |
| LZ4TU-5 | 2026-09-01 18:55:40 | 43.29100 | 20.80925 | 96° | 84km/h | 8958m | -17.6m/s | -30.8°C | 11.4% | 0hPa | 0V | 00:00:00 | 00:00:00 | 00:00:00 | |
| LZ4TU-5 | 2026-09-01 18:54:24 | 43.29105 | 20.78508 | 83° | 93km/h | 10338m | -19.0m/s | -41.7°C | 24.1% | 0hPa | 0V | 00:00:00 | 00:00:00 | 00:00:00 | |
| LZ4TU-5 | 2026-09-01 18:54:19 | 43.29087 | 20.78349 | 81° | 95km/h | 10435m | -19.4m/s | -42.0°C | 22.4% | 0hPa | 0V | 00:00:00 | 00:00:00 | 00:00:00 | |
| LZ4TU-5 | 2026-09-01 18:53:03 | 43.28737 | 20.75471 | 83° | 106km/h | 12050m | -22.6m/s | -51.6°C | 17.0% | 0hPa | 0V | 00:00:00 | 00:00:00 | 00:00:00 | |
| LZ4TU-5 | 2026-09-01 18:52:58 | 43.28715 | 20.75293 | 78° | 106km/h | 12154m | -22.7m/s | -52.2°C | 16.2% | 0hPa | 0V | 00:00:00 | 00:00:00 | 00:00:00 | |
| LZ4TU-5 | 2026-09-01 18:51:38 | 43.28439 | 20.72422 | 91° | 93km/h | 14042m | -25.0m/s | -62.1°C | 1.0% | 0hPa | 0V | 00:00:00 | 00:00:00 | 00:00:00 | |
| LZ4TU-5 | 2026-09-01 18:51:34 | 43.28440 | 20.72295 | 93° | 88km/h | 14145m | -25.1m/s | -62.3°C | 0.4% | 0hPa | 0V | 00:00:00 | 00:00:00 | 00:00:00 | |
| LZ4TU-5 | 2026-09-01 18:49:40 | 43.28316 | 20.69782 | 70° | 44km/h | 17457m | -33.2m/s | -59.8°C | 0.0% | 0hPa | 0V | 00:00:00 | 00:00:00 | 00:00:00 | |
| LZ4TU-5 | 2026-09-01 18:49:31 | 43.28286 | 20.69630 | 87° | 47km/h | 17757m | -33.5m/s | -58.8°C | 0.0% | 0hPa | 0V | 00:00:00 | 00:00:00 | 00:00:00 | |
| LZ4TU-5 | 2026-09-01 18:48:18 | 43.28221 | 20.68984 | 129° | 18km/h | 20400m | -37.0m/s | -54.0°C | 0.0% | 0hPa | 0V | 00:00:00 | 00:00:00 | 00:00:00 | |
| LZ4TU-5 | 2026-09-01 18:48:13 | 43.28233 | 20.68968 | 115° | 9km/h | 20589m | -37.5m/s | -54.7°C | 0.0% | 0hPa | 0V | 00:00:00 | 00:00:00 | 00:00:00 | |
| LZ4TU-5 | 2026-09-01 18:46:57 | 43.28179 | 20.68986 | 295° | 13km/h | 23809m | -49.2m/s | -51.3°C | 0.0% | 0hPa | 0V | 00:00:00 | 00:00:00 | 00:00:00 | |
| LZ4TU-5 | 2026-09-01 18:46:53 | 43.28174 | 20.69001 | 290° | 9km/h | 24003m | -47.8m/s | -51.2°C | 0.0% | 0hPa | 0V | 00:00:00 | 00:00:00 | 00:00:00 | |
| LZ4TU-5 | 2026-09-01 18:45:39 | 43.28237 | 20.69082 | 213° | 16km/h | 28251m | -66.6m/s | -44.3°C | 0.0% | 0hPa | 0V | 00:00:00 | 00:00:00 | 00:00:00 | |
| LZ4TU-5 | 2026-09-01 18:45:34 | 43.28252 | 20.69102 | 226° | 15km/h | 28590m | -69.2m/s | -43.4°C | 0.0% | 0hPa | 0V | 00:00:00 | 00:00:00 | 00:00:00 | |
| LZ4TU-5 | 2026-09-01 18:44:13 | 43.28387 | 20.69378 | 226° | 31km/h | 31378m | 6.3m/s | -39.7°C | 0.0% | 0hPa | 0V | 00:00:00 | 00:00:00 | 00:00:00 | |
| LZ4TU-5 | 2026-09-01 18:44:08 | 43.28399 | 20.69406 | 273° | 24km/h | 31345m | 4.7m/s | -39.8°C | 0.0% | 0hPa | 0V | 00:00:00 | 00:00:00 | 00:00:00 | |
| LZ4TU-5 | 2026-09-01 18:42:54 | 43.28532 | 20.69618 | 338° | 5km/h | 30834m | 4.6m/s | -41.7°C | 0.0% | 0hPa | 0V | 00:00:00 | 00:00:00 | 00:00:00 | |
| LZ4TU-5 | 2026-09-01 18:42:49 | 43.28536 | 20.69633 | 210° | 15km/h | 30798m | 7.6m/s | -41.9°C | 0.0% | 0hPa | 0V | 00:00:00 | 00:00:00 | 00:00:00 | |
| LZ4TU-5 | 2026-09-01 18:41:36 | 43.28599 | 20.69995 | 316° | 4km/h | 30308m | 6.6m/s | -43.3°C | 0.0% | 0hPa | 0V | 00:00:00 | 00:00:00 | 00:00:00 | |
| LZ4TU-5 | 2026-09-01 18:41:33 | 43.28596 | 20.70013 | 258° | 18km/h | 30283m | 7.2m/s | -43.6°C | 0.0% | 0hPa | 0V | 00:00:00 | 00:00:00 | 00:00:00 | |
| LZ4TU-5 | 2026-09-01 18:40:09 | 43.28715 | 20.70230 | 259° | 7km/h | 29740m | 6.4m/s | -43.1°C | 0.0% | 0hPa | 0V | 00:00:00 | 00:00:00 | 00:00:00 | |
| LZ4TU-5 | 2026-09-01 18:40:05 | 43.28733 | 20.70238 | 211° | 31km/h | 29712m | 7.7m/s | -43.3°C | 0.0% | 0hPa | 0V | 00:00:00 | 00:00:00 | 00:00:00 | |
| LZ4TU-5 | 2026-09-01 18:38:46 | 43.28990 | 20.70700 | 182° | 20km/h | 29182m | 7.7m/s | -44.9°C | 0.0% | 0hPa | 0V | 00:00:00 | 00:00:00 | 00:00:00 | |
| LZ4TU-5 | 2026-09-01 18:38:41 | 43.29020 | 20.70714 | 261° | 26km/h | 29148m | 6.3m/s | -45.2°C | 0.0% | 0hPa | 0V | 00:00:00 | 00:00:00 | 00:00:00 | |
| LZ4TU-5 | 2026-09-01 18:37:28 | 43.29205 | 20.70905 | 275° | 22km/h | 28652m | 5.8m/s | -45.8°C | 0.0% | 0hPa | 0V | 00:00:00 | 00:00:00 | 00:00:00 | |
| LZ4TU-5 | 2026-09-01 18:37:23 | 43.29212 | 20.70921 | 207° | 18km/h | 28619m | 6.6m/s | -45.6°C | 0.0% | 0hPa | 0V | 00:00:00 | 00:00:00 | 00:00:00 | |
| LZ4TU-5 | 2026-09-01 18:36:09 | 43.29417 | 20.71084 | 308° | 11km/h | 28115m | 6.4m/s | -46.8°C | 0.0% | 0hPa | 0V | 00:00:00 | 00:00:00 | 00:00:00 | |
| LZ4TU-5 | 2026-09-01 18:36:05 | 43.29414 | 20.71094 | 176° | 7km/h | 28083m | 7.8m/s | -46.9°C | 0.0% | 0hPa | 0V | 00:00:00 | 00:00:00 | 00:00:00 | |
| LZ4TU-5 | 2026-09-01 18:34:33 | 43.29558 | 20.71112 | 20° | 11km/h | 27485m | 6.2m/s | -47.0°C | 0.0% | 0hPa | 0V | 00:00:00 | 00:00:00 | 00:00:00 | |
| LZ4TU-5 | 2026-09-01 18:34:28 | 43.29539 | 20.71122 | 9° | 18km/h | 27454m | 6.7m/s | -47.2°C | 0.0% | 0hPa | 0V | 00:00:00 | 00:00:00 | 00:00:00 | |
| LZ4TU-5 | 2026-09-01 18:33:13 | 43.29273 | 20.71208 | 60° | 5km/h | 26961m | 6.9m/s | -47.5°C | 0.0% | 0hPa | 0V | 00:00:00 | 00:00:00 | 00:00:00 | |
| LZ4TU-5 | 2026-09-01 18:33:08 | 43.29266 | 20.71210 | 274° | 20km/h | 26926m | 6.3m/s | -47.5°C | 0.0% | 0hPa | 0V | 00:00:00 | 00:00:00 | 00:00:00 | |
| LZ4TU-5 | 2026-09-01 18:31:56 | 43.29380 | 20.71294 | 40° | 5km/h | 26464m | 6.1m/s | -48.9°C | 0.0% | 0hPa | 0V | 00:00:00 | 00:00:00 | 00:00:00 | |
| LZ4TU-5 | 2026-09-01 18:31:51 | 43.29374 | 20.71303 | 320° | 15km/h | 26431m | 7.1m/s | -49.0°C | 0.0% | 0hPa | 0V | 00:00:00 | 00:00:00 | 00:00:00 | |
| LZ4TU-5 | 2026-09-01 18:30:35 | 43.29470 | 20.71400 | 1° | 27km/h | 25950m | 5.7m/s | -49.4°C | 0.0% | 0hPa | 0V | 00:00:00 | 00:00:00 | 00:00:00 | |
| LZ4TU-5 | 2026-09-01 18:30:30 | 43.29453 | 20.71383 | 109° | 11km/h | 25917m | 6.7m/s | -49.3°C | 0% | 0hPa | 0V | 00:00:00 | 00:00:00 | 00:00:00 | |
| LZ4TU-5 | 2026-09-01 18:29:18 | 43.29303 | 20.71568 | 263° | 13km/h | 25450m | 6.0m/s | -49.9°C | 0.0% | 0hPa | 0V | 00:00:00 | 00:00:00 | 00:00:00 | |
| LZ4TU-5 | 2026-09-01 18:29:13 | 43.29309 | 20.71583 | 250° | 11km/h | 25418m | 7.6m/s | -50.0°C | 0.0% | 0hPa | 0V | 00:00:00 | 00:00:00 | 00:00:00 | |
| LZ4TU-5 | 2026-09-01 18:28:05 | 43.29494 | 20.71552 | 250° | 16km/h | 24993m | 7.0m/s | -51.1°C | 0.0% | 0hPa | 0V | 00:00:00 | 00:00:00 | 00:00:00 | |
| LZ4TU-5 | 2026-09-01 18:28:00 | 43.29514 | 20.71550 | 119° | 22km/h | 24963m | 5.9m/s | -51.4°C | 0.0% | 0hPa | 0V | 00:00:00 | 00:00:00 | 00:00:00 | |
| LZ4TU-5 | 2026-09-01 18:26:48 | 43.29470 | 20.71364 | 56° | 4km/h | 24512m | 6.0m/s | -51.9°C | 0.0% | 0hPa | 0V | 00:00:00 | 00:00:00 | 00:00:00 | |
| LZ4TU-5 | 2026-09-01 18:26:44 | 43.29471 | 20.71358 | 290° | 4km/h | 24488m | 7.5m/s | -52.1°C | 0.0% | 0hPa | 0V | 00:00:00 | 00:00:00 | 00:00:00 | |
| LZ4TU-5 | 2026-09-01 18:25:30 | 43.29386 | 20.71589 | 316° | 7km/h | 24026m | 7.0m/s | -51.6°C | 0.0% | 0hPa | 0V | 00:00:00 | 00:00:00 | 00:00:00 | |
| LZ4TU-5 | 2026-09-01 18:25:25 | 43.29390 | 20.71611 | 233° | 22km/h | 23994m | 7.4m/s | -51.6°C | 0.0% | 0hPa | 0V | 00:00:00 | 00:00:00 | 00:00:00 | |
| LZ4TU-5 | 2026-09-01 18:24:01 | 43.29446 | 20.71833 | 206° | 22km/h | 23486m | 5.9m/s | -52.5°C | 0.0% | 0hPa | 0V | 00:00:00 | 00:00:00 | 00:00:00 | |
| LZ4TU-5 | 2026-09-01 18:23:57 | 43.29470 | 20.71834 | 175° | 16km/h | 23461m | 6.6m/s | -52.7°C | 0.0% | 0hPa | 0V | 00:00:00 | 00:00:00 | 00:00:00 | |
| LZ4TU-5 | 2026-09-01 18:22:41 | 43.29572 | 20.71668 | 44° | 18km/h | 22995m | 6.8m/s | -54.6°C | 0.0% | 0hPa | 0V | 00:00:00 | 00:00:00 | 00:00:00 | |
| LZ4TU-5 | 2026-09-01 18:22:36 | 43.29559 | 20.71635 | 58° | 24km/h | 22965m | 6.2m/s | -54.6°C | 0.0% | 0hPa | 0V | 00:00:00 | 00:00:00 | 00:00:00 | |
| LZ4TU-5 | 2026-09-01 18:22:31 | 43.29543 | 20.71614 | 11° | 24km/h | 22934m | 6.0m/s | -54.6°C | 0.0% | 0hPa | 0V | 00:00:00 | 00:00:00 | 00:00:00 | |
| LZ4TU-5 | 2026-09-01 18:21:15 | 43.29338 | 20.71593 | 355° | 11km/h | 22481m | 6.5m/s | -55.0°C | 0.0% | 0hPa | 0V | 00:00:00 | 00:00:00 | 00:00:00 | |
| LZ4TU-5 | 2026-09-01 18:21:10 | 43.29332 | 20.71603 | 4° | 11km/h | 22452m | 5.2m/s | -55.0°C | 0.0% | 0hPa | 0V | 00:00:00 | 00:00:00 | 00:00:00 | |
| LZ4TU-5 | 2026-09-01 18:19:55 | 43.29061 | 20.71523 | 323° | 20km/h | 22008m | 6.6m/s | -55.9°C | 0.0% | 0hPa | 0V | 00:00:00 | 00:00:00 | 00:00:00 | |
| LZ4TU-5 | 2026-09-01 18:19:51 | 43.29051 | 20.71536 | 349° | 13km/h | 21983m | 6.2m/s | -55.8°C | 0% | 0hPa | 0V | 00:00:00 | 00:00:00 | 00:00:00 | |
| LZ4TU-5 | 2026-09-01 18:18:37 | 43.28882 | 20.71979 | 263° | 31km/h | 21545m | 4.9m/s | -54.6°C | 0.0% | 0hPa | 0V | 00:00:00 | 00:00:00 | 00:00:00 | |
| LZ4TU-5 | 2026-09-01 18:18:33 | 43.28876 | 20.72022 | 292° | 18km/h | 21516m | 5.9m/s | -54.5°C | 0.0% | 0hPa | 0V | 00:00:00 | 00:00:00 | 00:00:00 | |
| LZ4TU-5 | 2026-09-01 18:17:01 | 43.29111 | 20.72123 | 183° | 7km/h | 20967m | 7.1m/s | -55.2°C | 0.0% | 0hPa | 0V | 00:00:00 | 00:00:00 | 00:00:00 | |
| LZ4TU-5 | 2026-09-01 18:16:57 | 43.29122 | 20.72120 | 162° | 11km/h | 20943m | 5.8m/s | -55.1°C | 0.0% | 0hPa | 0V | 00:00:00 | 00:00:00 | 00:00:00 | |
| LZ4TU-5 | 2026-09-01 18:15:42 | 43.29287 | 20.71842 | 129° | 15km/h | 20511m | 5.4m/s | -55.2°C | 0.0% | 0hPa | 0V | 00:00:00 | 00:00:00 | 00:00:00 | |
| LZ4TU-5 | 2026-09-01 18:15:38 | 43.29293 | 20.71823 | 109° | 24km/h | 20486m | 7.1m/s | -55.1°C | 0% | 0hPa | 0V | 00:00:00 | 00:00:00 | 00:00:00 | |
| LZ4TU-5 | 2026-09-01 18:14:23 | 43.29178 | 20.71477 | 23° | 5km/h | 20049m | 5.7m/s | -54.8°C | 0.0% | 0hPa | 0V | 00:00:00 | 00:00:00 | 00:00:00 | |
| LZ4TU-5 | 2026-09-01 18:14:18 | 43.29178 | 20.71465 | 110° | 9km/h | 20021m | 5.6m/s | -54.8°C | 0.0% | 0hPa | 0V | 00:00:00 | 00:00:00 | 00:00:00 | |
| LZ4TU-5 | 2026-09-01 18:13:05 | 43.29099 | 20.71045 | 44° | 27km/h | 19606m | 6.4m/s | -58.5°C | 0.0% | 0hPa | 0V | 00:00:00 | 00:00:00 | 00:00:00 | |
| LZ4TU-5 | 2026-09-01 18:13:00 | 43.29079 | 20.71009 | 66° | 31km/h | 19579m | 5.1m/s | -58.3°C | 0.0% | 0hPa | 0V | 00:00:00 | 00:00:00 | 00:00:00 | |
| LZ4TU-5 | 2026-09-01 18:10:12 | 43.28858 | 20.70280 | 107° | 37km/h | 18592m | 5.3m/s | -57.3°C | 0.0% | 0hPa | 0V | 00:00:00 | 00:00:00 | 00:00:00 | |
| LZ4TU-5 | 2026-09-01 18:10:07 | 43.28864 | 20.70208 | 107° | 38km/h | 18561m | 6.6m/s | -57.2°C | 0.0% | 0hPa | 0V | 00:00:00 | 00:00:00 | 00:00:00 | |
| LZ4TU-5 | 2026-09-01 18:08:53 | 43.28767 | 20.69009 | 72° | 46km/h | 18120m | 6.1m/s | -59.0°C | 0.0% | 0hPa | 0V | 00:00:00 | 00:00:00 | 00:00:00 | |
| LZ4TU-5 | 2026-09-01 18:08:48 | 43.28747 | 20.68936 | 67° | 40km/h | 18094m | 4.8m/s | -59.0°C | 0.0% | 0hPa | 0V | 00:00:00 | 00:00:00 | 00:00:00 | |
| LZ4TU-5 | 2026-09-01 18:07:32 | 43.28504 | 20.67740 | 88° | 53km/h | 17687m | 5.6m/s | -60.3°C | 0.0% | 0hPa | 0V | 00:00:00 | 00:00:00 | 00:00:00 | |
| LZ4TU-5 | 2026-09-01 18:07:27 | 43.28496 | 20.67640 | 75° | 69km/h | 17660m | 5.9m/s | -60.5°C | 0.0% | 0hPa | 0V | 00:00:00 | 00:00:00 | 00:00:00 | |
| LZ4TU-5 | 2026-09-01 18:06:13 | 43.28082 | 20.66637 | 32° | 35km/h | 17256m | 4.9m/s | -60.8°C | 0.0% | 0hPa | 0V | 00:00:00 | 00:00:00 | 00:00:00 | |
| LZ4TU-5 | 2026-09-01 18:06:09 | 43.28053 | 20.66611 | 37° | 31km/h | 17233m | 7.0m/s | -60.7°C | 0.0% | 0hPa | 0V | 00:00:00 | 00:00:00 | 00:00:00 | |
| LZ4TU-5 | 2026-09-01 18:04:53 | 43.27671 | 20.65975 | 40° | 33km/h | 16833m | 4.7m/s | -59.3°C | 0.6% | 0hPa | 0V | 00:00:00 | 00:00:00 | 00:00:00 | |
| LZ4TU-5 | 2026-09-01 18:04:48 | 43.27652 | 20.65940 | 88° | 18km/h | 16807m | 6.1m/s | -59.1°C | 0.7% | 0hPa | 0V | 00:00:00 | 00:00:00 | 00:00:00 | |
| LZ4TU-5 | 2026-09-01 18:03:33 | 43.27733 | 20.65436 | 135° | 46km/h | 16418m | 7.5m/s | -58.7°C | 1.9% | 0hPa | 0V | 00:00:00 | 00:00:00 | 00:00:00 | |
| LZ4TU-5 | 2026-09-01 18:03:28 | 43.27789 | 20.65378 | 118° | 49km/h | 16387m | 7.1m/s | -58.8°C | 1.9% | 0hPa | 0V | 00:00:00 | 00:00:00 | 00:00:00 | |
| LZ4TU-5 | 2026-09-01 18:02:16 | 43.28067 | 20.63733 | 92° | 57km/h | 16024m | 4.9m/s | -59.4°C | 3.5% | 0hPa | 0V | 00:00:00 | 00:00:00 | 00:00:00 | |
| LZ4TU-5 | 2026-09-01 18:02:10 | 43.28071 | 20.63620 | 96° | 71km/h | 16001m | 5.4m/s | -59.4°C | 3.6% | 0hPa | 0V | 00:00:00 | 00:00:00 | 00:00:00 | |
| LZ4TU-5 | 2026-09-01 18:00:55 | 43.28064 | 20.61757 | 82° | 95km/h | 15633m | 5.3m/s | -61.5°C | 4.8% | 0hPa | 0V | 00:00:00 | 00:00:00 | 00:00:00 | |
| LZ4TU-5 | 2026-09-01 18:00:51 | 43.28049 | 20.61639 | 78° | 75km/h | 15613m | 5.0m/s | -61.4°C | 4.9% | 0hPa | 0V | 00:00:00 | 00:00:00 | 00:00:00 | |
| LZ4TU-5 | 2026-09-01 18:00:47 | 43.28034 | 20.61536 | 79° | 84km/h | 15593m | 5.6m/s | -61.3°C | 5.1% | 0hPa | 0V | 00:00:00 | 00:00:00 | 00:00:00 | |
| LZ4TU-5 | 2026-09-01 18:00:42 | 43.28013 | 20.61379 | 83° | 86km/h | 15570m | 4.9m/s | -61.2°C | 0% | 0hPa | 0V | 00:00:00 | 00:00:00 | 00:00:00 | |
| LZ4TU-5 | 2026-09-01 17:59:28 | 43.27787 | 20.59497 | 79° | 78km/h | 15209m | 5.0m/s | -61.1°C | 7.5% | 0hPa | 0V | 00:00:00 | 00:00:00 | 00:00:00 | |
| LZ4TU-5 | 2026-09-01 17:59:23 | 43.27756 | 20.59372 | 72° | 78km/h | 15185m | 4.7m/s | -61.5°C | 7.7% | 0hPa | 0V | 00:00:00 | 00:00:00 | 00:00:00 | |
| LZ4TU-5 | 2026-09-01 17:58:08 | 43.27531 | 20.57362 | 77° | 78km/h | 14823m | 5.2m/s | -61.7°C | 11.3% | 0hPa | 0V | 00:00:00 | 00:00:00 | 00:00:00 | |
| LZ4TU-5 | 2026-09-01 17:58:03 | 43.27520 | 20.57232 | 91° | 75km/h | 14798m | 5.4m/s | -61.6°C | 11.5% | 0hPa | 0V | 00:00:00 | 00:00:00 | 00:00:00 | |
| LZ4TU-5 | 2026-09-01 17:57:59 | 43.27514 | 20.57124 | 84° | 77km/h | 14779m | 4.4m/s | -61.5°C | 11.7% | 0hPa | 0V | 00:00:00 | 00:00:00 | 00:00:00 | |
| LZ4TU-5 | 2026-09-01 17:57:54 | 43.27496 | 20.56994 | 88° | 78km/h | 14756m | 5.3m/s | -61.4°C | 11.9% | 0hPa | 0V | 00:00:00 | 00:00:00 | 00:00:00 | |
| LZ4TU-5 | 2026-09-01 17:57:49 | 43.27496 | 20.56865 | 88° | 66km/h | 14732m | 5.4m/s | -61.4°C | 12.2% | 0hPa | 0V | 00:00:00 | 00:00:00 | 00:00:00 | |
| LZ4TU-5 | 2026-09-01 17:56:35 | 43.27388 | 20.54896 | 94° | 75km/h | 14341m | 5.4m/s | -61.8°C | 15.4% | 0hPa | 0V | 00:00:00 | 00:00:00 | 00:00:00 | |
| LZ4TU-5 | 2026-09-01 17:56:30 | 43.27394 | 20.54769 | 93° | 84km/h | 14314m | 5.7m/s | -61.7°C | 0% | 0hPa | 0V | 00:00:00 | 00:00:00 | 00:00:00 | |
| LZ4TU-5 | 2026-09-01 17:55:18 | 43.27428 | 20.52569 | 84° | 89km/h | 13945m | 5.7m/s | -61.5°C | 18.0% | 0hPa | 0V | 00:00:00 | 00:00:00 | 00:00:00 | |
| LZ4TU-5 | 2026-09-01 17:55:13 | 43.27416 | 20.52417 | 87° | 89km/h | 13923m | 4.1m/s | -61.5°C | 18.1% | 0hPa | 0V | 00:00:00 | 00:00:00 | 00:00:00 | |
| LZ4TU-5 | 2026-09-01 17:53:57 | 43.27258 | 20.49855 | 91° | 99km/h | 13482m | 7.2m/s | -60.5°C | 21.4% | 0hPa | 0V | 00:00:00 | 00:00:00 | 00:00:00 | |
| LZ4TU-5 | 2026-09-01 17:53:53 | 43.27262 | 20.49718 | 92° | 97km/h | 13460m | 6.9m/s | -60.6°C | 21.5% | 0hPa | 0V | 00:00:00 | 00:00:00 | 00:00:00 | |
| LZ4TU-5 | 2026-09-01 17:52:39 | 43.27156 | 20.46965 | 85° | 119km/h | 13021m | 4.9m/s | -58.9°C | 20.5% | 0hPa | 0V | 00:00:00 | 00:00:00 | 00:00:00 | |
| LZ4TU-5 | 2026-09-01 17:52:34 | 43.27135 | 20.46760 | 83° | 111km/h | 12991m | 6.7m/s | -58.8°C | 20.4% | 0hPa | 0V | 00:00:00 | 00:00:00 | 00:00:00 | |
| LZ4TU-5 | 2026-09-01 17:51:18 | 43.26747 | 20.43874 | 78° | 102km/h | 12584m | 4.4m/s | -55.8°C | 18.3% | 0hPa | 0V | 00:00:00 | 00:00:00 | 00:00:00 | |
| LZ4TU-5 | 2026-09-01 17:51:13 | 43.26721 | 20.43696 | 83° | 113km/h | 12560m | 4.2m/s | -55.6°C | 18.3% | 0hPa | 0V | 00:00:00 | 00:00:00 | 00:00:00 | |
| LZ4TU-5 | 2026-09-01 17:49:49 | 43.26309 | 20.40586 | 86° | 113km/h | 12155m | 4.8m/s | -53.2°C | 19.8% | 0hPa | 0V | 00:00:00 | 00:00:00 | 00:00:00 | |
| LZ4TU-5 | 2026-09-01 17:49:44 | 43.26299 | 20.40396 | 89° | 111km/h | 12133m | 4.4m/s | -53.2°C | 19.8% | 0hPa | 0V | 00:00:00 | 00:00:00 | 00:00:00 | |
| LZ4TU-5 | 2026-09-01 17:48:30 | 43.26027 | 20.37482 | 82° | 113km/h | 11744m | 5.5m/s | -50.5°C | 19.4% | 0hPa | 0V | 00:00:00 | 00:00:00 | 00:00:00 | |
| LZ4TU-5 | 2026-09-01 17:48:25 | 43.26009 | 20.37279 | 86° | 119km/h | 11715m | 7.0m/s | -50.3°C | 19.7% | 0hPa | 0V | 00:00:00 | 00:00:00 | 00:00:00 | |
| LZ4TU-5 | 2026-09-01 17:47:03 | 43.25647 | 20.34015 | 80° | 113km/h | 11285m | 5.0m/s | -47.9°C | 23.3% | 0hPa | 0V | 00:00:00 | 00:00:00 | 00:00:00 | |
| LZ4TU-5 | 2026-09-01 17:46:58 | 43.25623 | 20.33825 | 86° | 117km/h | 11258m | 5.4m/s | -47.9°C | 23.6% | 0hPa | 0V | 00:00:00 | 00:00:00 | 00:00:00 | |
| LZ4TU-5 | 2026-09-01 17:45:45 | 43.25300 | 20.30899 | 74° | 104km/h | 10848m | 7.4m/s | -45.2°C | 18.2% | 0hPa | 0V | 00:00:00 | 00:00:00 | 00:00:00 | |
| LZ4TU-5 | 2026-09-01 17:45:40 | 43.25270 | 20.30714 | 85° | 119km/h | 10816m | 7.7m/s | -45.0°C | 18.5% | 0hPa | 0V | 00:00:00 | 00:00:00 | 00:00:00 | |
| LZ4TU-5 | 2026-09-01 17:44:14 | 43.25006 | 20.27802 | 85° | 84km/h | 10371m | 5.9m/s | -42.3°C | 25.0% | 0hPa | 0V | 00:00:00 | 00:00:00 | 00:00:00 | |
| LZ4TU-5 | 2026-09-01 17:42:59 | 43.24842 | 20.25453 | 86° | 100km/h | 9936m | 5.1m/s | -38.9°C | 17.7% | 0hPa | 0V | 00:00:00 | 00:00:00 | 00:00:00 | |
| LZ4TU-5 | 2026-09-01 17:42:55 | 43.24838 | 20.25314 | 84° | 91km/h | 9916m | 4.9m/s | -38.6°C | 17.3% | 0hPa | 0V | 00:00:00 | 00:00:00 | 00:00:00 | |
| LZ4TU-5 | 2026-09-01 17:41:39 | 43.24731 | 20.22883 | 83° | 102km/h | 9516m | 7.1m/s | -35.6°C | 16.1% | 0hPa | 0V | 00:00:00 | 00:00:00 | 00:00:00 | |
| LZ4TU-5 | 2026-09-01 17:41:34 | 43.24726 | 20.22719 | 103° | 78km/h | 9485m | 5.7m/s | -35.3°C | 0% | 0hPa | 0V | 00:00:00 | 00:00:00 | 00:00:00 | |
| LZ4TU-5 | 2026-09-01 17:40:19 | 43.24809 | 20.20388 | 95° | 84km/h | 9082m | 4.8m/s | -32.4°C | 11.9% | 0hPa | 0V | 00:00:00 | 00:00:00 | 00:00:00 | |
| LZ4TU-5 | 2026-09-01 17:40:14 | 43.24803 | 20.20234 | 93° | 99km/h | 9059m | 5.6m/s | -32.2°C | 11.8% | 0hPa | 0V | 00:00:00 | 00:00:00 | 00:00:00 |